Boulder Junction, Wisconsin
Current Conditions -  °F | °C
As of 6:15 PM on Saturday 25 Oct 2014 (Local Time) from KD25 Reporting Station
Clear Clear  
Wind Chill: 51°   Ceiling: Unl
Heat Index: 51°   Visibility: 10mi
Dew Point: 23°   Wind: 15mph
Humidity: 34%   Direction: 300°WNW
Pressure: 29.89"   Gusts: 20mph
Location:  46.11°N, 89.64°W
Report Text: KD25 252315Z AUTO 30013G17KT 10SM CLR 11/M05 A2989 RMK AO2 T01061048
Loading
Personal Weather Stations






























Interactive Weather Map
Tropical Storm Tracking
New forecast layout! Learn more

10-Day Weather Forecast

Advertisements
Track Severe Weather on mobile